createdAt,value
2022-10-18T00:01:04.684Z,18.71
2022-10-18T00:06:14.716Z,21.10
2022-10-18T00:11:17.762Z,22.10
2022-10-18T00:16:20.691Z,21.71
2022-10-18T00:21:26.172Z,19.50
2022-10-18T00:26:31.227Z,18.08
2022-10-18T00:31:37.663Z,18.41
2022-10-18T00:36:42.269Z,20.80
2022-10-18T00:41:45.758Z,21.82
2022-10-18T00:46:50.375Z,21.40
2022-10-18T00:52:17.243Z,19.26
2022-10-18T00:57:20.764Z,17.69
2022-10-18T01:02:25.832Z,18.05
2022-10-18T01:07:53.175Z,20.37
2022-10-18T01:13:30.486Z,21.35
2022-10-18T01:18:53.216Z,20.76
2022-10-18T01:24:27.125Z,18.55
2022-10-18T01:29:51.384Z,18.65
2022-10-18T01:35:03.595Z,20.69
2022-10-18T01:40:09.278Z,21.44
2022-10-18T01:45:15.174Z,20.35
2022-10-18T01:50:30.772Z,18.32
2022-10-18T01:55:51.133Z,18.43
2022-10-18T02:01:26.066Z,20.64
2022-10-18T02:06:43.540Z,21.67
2022-10-18T02:11:51.489Z,21.14
2022-10-18T02:17:01.544Z,18.97
2022-10-18T02:22:10.779Z,17.57
2022-10-18T02:27:14.723Z,17.97
2022-10-18T02:32:38.619Z,20.25
2022-10-18T02:37:45.392Z,21.16
2022-10-18T02:42:57.942Z,20.87
2022-10-18T02:48:00.954Z,18.73
2022-10-18T02:53:04.524Z,17.35
2022-10-18T02:58:07.450Z,17.70
2022-10-18T03:03:10.326Z,19.90
2022-10-18T03:08:13.244Z,20.88
2022-10-18T03:13:16.609Z,21.32
2022-10-18T03:18:19.598Z,20.71
2022-10-18T03:23:22.540Z,18.38
2022-10-18T03:28:25.577Z,16.85
2022-10-18T03:33:30.522Z,17.19
2022-10-18T03:38:33.577Z,19.61
2022-10-18T03:43:36.603Z,20.62
2022-10-18T03:48:39.681Z,21.19
2022-10-18T03:53:42.637Z,20.56
2022-10-18T03:58:45.775Z,18.22
2022-10-18T04:03:48.762Z,16.98
2022-10-18T04:08:51.756Z,18.66
2022-10-18T04:13:54.699Z,20.14
2022-10-18T04:19:00.052Z,20.90
2022-10-18T04:24:03.014Z,21.40
2022-10-18T04:29:06.026Z,20.81
2022-10-18T04:34:10.790Z,18.55
2022-10-18T04:39:13.748Z,16.98
2022-10-18T04:44:16.702Z,17.27
2022-10-18T04:49:19.743Z,19.73
2022-10-18T04:54:25.154Z,20.72
2022-10-18T04:59:31.073Z,21.20
2022-10-18T05:04:34.548Z,20.34
2022-10-18T05:09:37.553Z,18.15
2022-10-18T05:14:40.567Z,16.81
2022-10-18T05:19:43.761Z,17.29
2022-10-18T05:24:46.776Z,19.80
2022-10-18T05:29:49.879Z,20.99
2022-10-18T05:34:52.981Z,21.67
2022-10-18T05:39:56.083Z,20.58
2022-10-18T05:44:59.089Z,18.34
2022-10-18T05:50:02.194Z,18.23
2022-10-18T05:55:06.131Z,20.29
2022-10-18T06:00:10.754Z,21.07
2022-10-18T06:05:13.776Z,21.52
2022-10-18T06:10:17.077Z,21.00
2022-10-18T06:15:20.594Z,18.72
2022-10-18T06:20:23.701Z,17.30
2022-10-18T06:25:26.701Z,17.84
2022-10-18T06:30:29.715Z,20.38
2022-10-18T06:35:32.816Z,21.24
2022-10-18T06:40:38.281Z,21.81
2022-10-18T06:45:41.382Z,21.31
2022-10-18T06:50:57.199Z,19.28
2022-10-18T06:56:11.173Z,17.92
2022-10-18T07:01:17.757Z,18.29
2022-10-18T07:06:22.962Z,20.43
2022-10-18T07:11:27.527Z,21.47
2022-10-18T07:16:32.905Z,22.08
2022-10-18T07:21:35.939Z,21.57
2022-10-18T07:26:38.953Z,19.38
2022-10-18T07:31:42.106Z,19.09
2022-10-18T07:36:45.231Z,21.15
2022-10-18T07:41:48.629Z,22.07
2022-10-18T07:46:51.632Z,21.62
2022-10-18T07:51:54.731Z,19.52
2022-10-18T07:56:58.040Z,18.13
2022-10-18T08:02:01.356Z,18.49
2022-10-18T08:07:04.473Z,20.75
2022-10-18T08:12:07.424Z,21.80
2022-10-18T08:17:10.423Z,22.36
2022-10-18T08:22:13.485Z,21.92
2022-10-18T08:27:16.515Z,19.82
2022-10-18T08:32:19.463Z,19.53
2022-10-18T08:37:22.482Z,21.43
2022-10-18T08:42:37.416Z,22.33
2022-10-18T08:47:45.010Z,22.91
2022-10-18T08:52:59.457Z,22.35
2022-10-18T08:58:26.923Z,20.08
2022-10-18T09:04:17.576Z,18.65
2022-10-18T09:10:03.101Z,19.33
2022-10-18T09:15:12.202Z,21.34
2022-10-18T09:20:38.038Z,22.17
2022-10-18T09:26:01.208Z,22.74
2022-10-18T09:31:26.601Z,23.32
2022-10-18T09:36:37.251Z,22.62
2022-10-18T09:41:48.035Z,20.58
2022-10-18T09:47:14.594Z,20.39
2022-10-18T09:52:39.582Z,22.22
2022-10-18T09:57:54.987Z,23.04
2022-10-18T10:03:00.767Z,22.49
2022-10-18T10:08:05.182Z,20.37
2022-10-18T10:13:23.258Z,20.13
2022-10-18T10:18:35.092Z,22.06
2022-10-18T10:23:55.931Z,22.83
2022-10-18T10:28:59.363Z,23.45
2022-10-18T10:34:15.291Z,22.00
2022-10-18T10:39:21.622Z,20.13
2022-10-18T10:44:32.952Z,20.23
2022-10-18T10:49:40.567Z,22.08
2022-10-18T10:54:51.300Z,22.73
2022-10-18T11:00:02.289Z,23.11
2022-10-18T11:05:31.040Z,22.55
2022-10-18T11:11:00.086Z,20.21
2022-10-18T11:16:29.845Z,20.12
2022-10-18T11:21:33.637Z,22.09
2022-10-18T11:26:56.500Z,22.75
2022-10-18T11:32:27.689Z,23.06
2022-10-18T11:37:49.106Z,22.23
2022-10-18T11:43:34.422Z,20.04
2022-10-18T11:49:17.236Z,20.27
2022-10-18T11:55:02.024Z,22.15
2022-10-18T12:00:23.122Z,22.90
2022-10-18T12:05:29.253Z,23.28
2022-10-18T12:10:44.360Z,22.80
2022-10-18T12:15:56.749Z,20.58
2022-10-18T12:21:02.098Z,20.42
2022-10-18T12:26:10.155Z,22.22
2022-10-18T12:31:19.167Z,22.88
2022-10-18T12:36:22.164Z,23.29
2022-10-18T12:41:36.746Z,22.76
2022-10-18T12:46:45.586Z,20.59
2022-10-18T12:52:02.331Z,20.28
2022-10-18T12:57:23.647Z,22.08
2022-10-18T13:02:30.049Z,22.76
2022-10-18T13:07:41.220Z,23.16
2022-10-18T13:12:44.232Z,22.63
2022-10-18T13:18:00.283Z,20.56
2022-10-18T13:23:37.037Z,20.36
2022-10-18T13:29:08.774Z,22.34
2022-10-18T13:34:24.452Z,22.90
2022-10-18T13:39:30.039Z,23.38
2022-10-18T13:44:43.937Z,22.70
2022-10-18T13:50:36.801Z,20.33
2022-10-18T13:55:57.949Z,20.26
2022-10-18T14:01:32.398Z,22.09
2022-10-18T14:06:45.127Z,22.80
2022-10-18T14:11:57.940Z,21.95
2022-10-18T14:17:51.043Z,19.60
2022-10-18T14:23:17.670Z,19.81
2022-10-18T14:28:31.563Z,21.74
2022-10-18T14:33:57.314Z,22.46
2022-10-18T14:39:06.155Z,22.92
2022-10-18T14:44:14.850Z,22.28
2022-10-18T14:49:21.162Z,19.88
2022-10-18T14:54:32.213Z,18.29
2022-10-18T14:59:51.982Z,18.72
2022-10-18T15:05:20.812Z,20.98
2022-10-18T15:10:30.436Z,22.06
2022-10-18T15:15:35.307Z,22.58
2022-10-18T15:20:43.026Z,21.86
2022-10-18T15:25:46.395Z,19.47
2022-10-18T15:30:49.880Z,19.14
2022-10-18T15:35:54.554Z,21.24
2022-10-18T15:40:58.038Z,22.10
2022-10-18T15:46:06.465Z,22.25
2022-10-18T15:51:48.629Z,20.18
2022-10-18T15:56:51.690Z,19.73
2022-10-18T16:01:55.319Z,21.44
2022-10-18T16:07:00.257Z,22.20
2022-10-18T16:12:04.901Z,21.71
2022-10-18T16:17:08.319Z,19.51
2022-10-18T16:22:15.422Z,19.36
2022-10-18T16:27:19.262Z,21.44
2022-10-18T16:32:22.256Z,22.33
2022-10-18T16:37:25.245Z,21.87
2022-10-18T16:42:28.351Z,19.63
2022-10-18T16:47:31.363Z,19.32
2022-10-18T16:52:35.069Z,21.28
2022-10-18T16:57:38.384Z,22.14
2022-10-18T17:02:41.525Z,21.64
2022-10-18T17:07:46.315Z,19.46
2022-10-18T17:12:49.451Z,17.93
2022-10-18T17:17:52.899Z,18.25
2022-10-18T17:22:56.198Z,20.46
2022-10-18T17:27:59.385Z,21.55
2022-10-18T17:33:02.485Z,21.25
2022-10-18T17:38:05.968Z,19.07
2022-10-18T17:43:09.425Z,17.53
2022-10-18T17:48:12.519Z,17.81
2022-10-18T17:53:16.826Z,20.14
2022-10-18T17:58:19.960Z,21.08
2022-10-18T18:03:23.163Z,21.38
2022-10-18T18:08:26.386Z,20.73
2022-10-18T18:13:29.488Z,18.41
2022-10-18T18:18:32.693Z,18.06
2022-10-18T18:23:35.905Z,19.92
2022-10-18T18:28:39.502Z,20.63
2022-10-18T18:33:43.852Z,21.15
2022-10-18T18:38:47.396Z,20.48
2022-10-18T18:43:55.081Z,18.11
2022-10-18T18:48:59.008Z,16.53
2022-10-18T18:54:02.216Z,16.78
2022-10-18T18:59:06.022Z,19.07
2022-10-18T19:04:10.788Z,20.07
2022-10-18T19:09:22.968Z,20.56
2022-10-18T19:14:26.340Z,19.77
2022-10-18T19:19:31.059Z,17.22
2022-10-18T19:24:34.683Z,16.87
2022-10-18T19:29:40.513Z,18.64
2022-10-18T19:34:43.968Z,19.48
2022-10-18T19:39:47.198Z,18.97
2022-10-18T19:44:50.197Z,16.64
2022-10-18T19:49:54.035Z,15.16
2022-10-18T19:54:57.124Z,15.55
2022-10-18T20:00:00.907Z,17.91
2022-10-18T20:05:05.267Z,19.07
2022-10-18T20:10:09.801Z,18.60
2022-10-18T20:15:12.923Z,16.24
2022-10-18T20:20:16.114Z,14.71
2022-10-18T20:25:19.124Z,14.92
2022-10-18T20:30:22.226Z,17.42
2022-10-18T20:35:25.643Z,18.54
2022-10-18T20:40:28.742Z,18.16
2022-10-18T20:45:31.746Z,15.92
2022-10-18T20:50:34.796Z,14.39
2022-10-18T20:55:38.991Z,14.65
2022-10-18T21:00:42.299Z,16.99
2022-10-18T21:05:45.303Z,18.15
2022-10-18T21:10:48.406Z,17.95
2022-10-18T21:15:57.007Z,15.70
2022-10-18T21:26:26.351Z,14.68
2022-10-18T21:31:37.177Z,16.87
2022-10-18T21:36:41.628Z,18.02
2022-10-18T21:41:45.778Z,18.75
2022-10-18T21:46:49.061Z,18.04
2022-10-18T21:51:52.163Z,15.60
2022-10-18T21:56:55.476Z,15.47
2022-10-18T22:01:58.504Z,17.28
2022-10-18T22:07:05.068Z,18.10
2022-10-18T22:12:10.838Z,17.55
2022-10-18T22:17:14.251Z,15.25
2022-10-18T22:22:17.251Z,15.80
2022-10-18T22:27:20.283Z,17.38
2022-10-18T22:32:23.775Z,18.07
2022-10-18T22:37:26.879Z,17.67
2022-10-18T22:42:29.900Z,15.36
2022-10-18T22:47:33.321Z,15.04
2022-10-18T22:52:36.846Z,17.27
2022-10-18T22:57:40.048Z,18.33
2022-10-18T23:02:43.126Z,17.78
2022-10-18T23:07:49.918Z,15.61
2022-10-18T23:12:52.924Z,16.99
2022-10-18T23:17:58.369Z,17.98
2022-10-18T23:23:01.496Z,17.54
2022-10-18T23:28:05.993Z,15.17
2022-10-18T23:33:09.006Z,14.96
2022-10-18T23:38:12.140Z,17.03
2022-10-18T23:43:15.142Z,17.97
2022-10-18T23:48:18.982Z,18.43
2022-10-18T23:53:23.013Z,17.24
2022-10-18T23:58:28.532Z,14.87
